Michigan City, IN

8:37 AM CST on December 11, 2016 (GMT -0600)
The Beacher, Franklin@10th | | Change Station
Active Advisory: Winter Storm Warning

Elev 623 ft 41.71 °N, 86.90 °W | Updated 2 seconds ago

Light Snow
Light Snow
26.9 °F
Feels Like 20 °F
N
6.0
Wind Variable Wind from South
Gusts 17.0 mph

Today
High -- | Low -- °F
--% Chance of Precip.
Yesterday
High -- | Low -- °F
Precip. -- in
Pressure 30.08 in
Visibility 0.5 miles
Clouds Overcast 1200 ft
Windchill 20 °F
Dew Point 25 °F
Humidity 94%
Rainfall 0.00 in
Snow Depth Not available.
7:04 AM 4:17 PM
Waxing Gibbous, 92% visible
METAR KMGC 111415Z AUTO 15006KT 1/2SM -SN OVC012 M03/M03 A3008 RMK AO2
Pressure 30.08 in
Visibility 0.5 miles
Clouds Overcast 1200 ft
Windchill 20 °F
Dew Point 25 °F
Humidity 94%
Rainfall 0.00 in
Snow Depth Not available.
7:04 AM 4:17 PM
Waxing Gibbous, 92% visible
METAR KMGC 111415Z AUTO 15006KT 1/2SM -SN OVC012 M03/M03 A3008 RMK AO2

10-Day Weather Forecast

Almanac

Astronomy

Dec. 11, 2016 Rise Set
Actual Time
Civil Twilight
Nautical Twilight
Astronomical Twilight
Moon
Length of Visible Light
Length of Day
Tomorrow will be .
, % of the Moon is Illuminated

Today's Extremes

State Highs State Lows

Community

WunderPhotos

Upload Photos

1,956,719 photos uploaded!

WunderBlog® & News

Nearby

Air Quality

  Air Quality AQ Index Pollutant
Not available.

Snow Depth

Station Depth Elevation

Earthquake Activity

City Distance Mag. Time & Date
Minimum magnitude displayed is 2.5.

Coastal Water Temperatures

Place Temperature

Stations

Nearby Weather Stations

Station Location Temp. Windchill Dew Point Humidity Wind Precip. Elev Updated Type
                   

Watches & Warnings

Winter Storm Warning
Issued: 3:30 AM CST Dec. 11, 2016 – National Weather Service

... Winter Storm Warning remains in effect until 4 am EST /3 am
CST/ Monday...

Hazardous weather...

* storm total snowfall accumulations by Sunday night will range
   from 7 to 10 inches with locally higher amounts possible.

* Periods of snow will continue across the warning area into this
   evening. The heaviest snow is expected from late morning into
   the afternoon hours when snowfall rates could locally approach
   or exceed 1 inch per hour in some areas.

Impacts...

* roads that have not been plowed or treated will remain snow
   covered and slippery through tonight.

* Some blowing and drifting is possible on Sunday due to south
   winds gusting to around 20 mph.

* Reduced visibilities can be expected during the periods of
   heavier snow... especially late this morning into the afternoon
   hours.

Precautionary/preparedness actions...

A Winter Storm Warning for heavy snow means severe winter weather
conditions are expected or occurring. Significant amounts of
snow are forecast that will make travel dangerous. Only travel in
an emergency. If you must travel... keep an extra flashlight...
food... and water in your vehicle in case of an emergency.